createdAt,value
2022-09-12T00:00:48.177Z,11.3
2022-09-12T00:01:51.581Z,11.3
2022-09-12T00:02:54.780Z,11.3
2022-09-12T00:03:58.006Z,11.3
2022-09-12T00:05:00.834Z,11.1
2022-09-12T00:06:03.816Z,11.2
2022-09-12T00:07:07.037Z,11.3
2022-09-12T00:08:09.837Z,11.3
2022-09-12T00:09:12.988Z,11.3
2022-09-12T00:10:15.580Z,11.2
2022-09-12T00:11:18.725Z,11.2
2022-09-12T00:12:22.453Z,11.2
2022-09-12T00:13:24.988Z,11.1
2022-09-12T00:14:27.431Z,11.1
2022-09-12T00:15:30.877Z,11.1
2022-09-12T00:16:34.411Z,11.2
2022-09-12T00:17:38.199Z,11.2
2022-09-12T00:18:40.640Z,11.2
2022-09-12T00:19:44.063Z,11.2
2022-09-12T00:20:47.705Z,11.1
2022-09-12T00:21:50.655Z,11.1
2022-09-12T00:22:54.337Z,11.2
2022-09-12T00:23:57.815Z,11.2
2022-09-12T00:25:01.064Z,11.2
2022-09-12T00:26:04.140Z,11.2
2022-09-12T00:27:07.910Z,11.1
2022-09-12T00:28:10.987Z,11.1
2022-09-12T00:29:13.874Z,11.1
2022-09-12T00:30:16.390Z,11.2
2022-09-12T00:31:18.969Z,11.2
2022-09-12T00:32:21.250Z,11.2
2022-09-12T00:33:24.236Z,11.1
2022-09-12T00:34:27.051Z,11.2
2022-09-12T00:35:29.764Z,11.2
2022-09-12T00:36:32.672Z,11.3
2022-09-12T00:37:34.718Z,11.2
2022-09-12T00:38:38.504Z,11.4
2022-09-12T00:39:42.705Z,11.2
2022-09-12T00:40:45.907Z,11.3
2022-09-12T00:41:48.216Z,11.4
2022-09-12T00:42:51.003Z,11.3
2022-09-12T00:43:53.505Z,11.4
2022-09-12T00:44:56.662Z,11.4
2022-09-12T00:45:59.653Z,11.4
2022-09-12T00:47:03.105Z,11.3
2022-09-12T00:48:05.723Z,11.3
2022-09-12T00:49:08.237Z,11.3
2022-09-12T00:50:11.421Z,11.2
2022-09-12T00:51:15.105Z,11.2
2022-09-12T00:52:18.855Z,11.2
2022-09-12T00:53:21.725Z,11.2
2022-09-12T00:54:25.792Z,11.2
2022-09-12T00:55:28.601Z,11.2
2022-09-12T00:56:31.695Z,11.2
2022-09-12T00:57:34.852Z,11.2
2022-09-12T00:58:38.000Z,11.2
2022-09-12T00:59:41.150Z,11.1
2022-09-12T01:00:44.589Z,11.1
2022-09-12T01:01:49.177Z,11.1
2022-09-12T01:02:52.069Z,11.1
2022-09-12T01:03:54.861Z,11.1
2022-09-12T01:04:57.741Z,11.1
2022-09-12T01:06:00.987Z,11.1
2022-09-12T01:07:04.051Z,11
2022-09-12T01:08:07.080Z,11.1
2022-09-12T01:09:10.052Z,11
2022-09-12T01:10:13.824Z,11
2022-09-12T01:11:16.822Z,11
2022-09-12T01:12:19.716Z,10.9
2022-09-12T01:13:22.935Z,11
2022-09-12T01:14:25.536Z,10.9
2022-09-12T01:15:28.253Z,10.9
2022-09-12T01:16:31.589Z,10.9
2022-09-12T01:17:35.146Z,11
2022-09-12T01:18:38.139Z,11
2022-09-12T01:19:41.498Z,11
2022-09-12T01:20:44.559Z,11
2022-09-12T01:21:47.287Z,11
2022-09-12T01:22:50.727Z,11
2022-09-12T01:23:53.479Z,11
2022-09-12T01:24:56.001Z,10.9
2022-09-12T01:25:59.791Z,10.9
2022-09-12T01:27:02.333Z,11
2022-09-12T01:28:05.801Z,10.9
2022-09-12T01:29:08.623Z,10.9
2022-09-12T01:30:11.718Z,10.9
2022-09-12T01:31:14.872Z,10.9
2022-09-12T01:32:18.645Z,10.8
2022-09-12T01:33:22.085Z,10.9
2022-09-12T01:34:24.963Z,10.8
2022-09-12T01:35:28.209Z,10.8
2022-09-12T01:36:31.382Z,10.8
2022-09-12T01:37:33.895Z,10.9
2022-09-12T01:38:37.096Z,10.8
2022-09-12T01:39:40.507Z,10.6
2022-09-12T01:40:44.801Z,10.8
2022-09-12T01:41:48.571Z,10.8
2022-09-12T01:42:51.677Z,10.9
2022-09-12T01:43:54.693Z,10.7
2022-09-12T01:44:58.422Z,10.7
2022-09-12T01:46:02.129Z,10.7
2022-09-12T01:47:04.804Z,10.8
2022-09-12T01:48:07.990Z,10.8
2022-09-12T01:49:10.964Z,10.7
2022-09-12T01:50:14.416Z,10.7
2022-09-12T01:51:17.281Z,10.7
2022-09-12T01:52:19.800Z,10.7
2022-09-12T01:53:23.506Z,10.7
2022-09-12T01:54:25.948Z,10.6
2022-09-12T01:55:29.410Z,10.7
2022-09-12T01:56:32.543Z,10.7
2022-09-12T01:57:36.604Z,10.7
2022-09-12T01:58:39.432Z,10.7
2022-09-12T01:59:42.940Z,10.7
2022-09-12T02:00:45.921Z,10.6
2022-09-12T02:01:49.781Z,10.7
2022-09-12T02:02:53.202Z,10.7
2022-09-12T02:03:56.106Z,10.6
2022-09-12T02:04:59.013Z,10.7
2022-09-12T02:06:02.350Z,10.6
2022-09-12T02:07:05.501Z,10.6
2022-09-12T02:08:08.471Z,10.7
2022-09-12T02:09:11.627Z,10.6
2022-09-12T02:10:14.647Z,10.6
2022-09-12T02:11:18.092Z,10.6
2022-09-12T02:12:20.594Z,10.5
2022-09-12T02:13:24.113Z,10.6
2022-09-12T02:14:27.280Z,10.6
2022-09-12T02:15:30.753Z,10.6
2022-09-12T02:16:33.868Z,10.6
2022-09-12T02:17:37.750Z,10.5
2022-09-12T02:18:40.525Z,10.5
2022-09-12T02:19:43.665Z,10.5
2022-09-12T02:20:50.522Z,10.7
2022-09-12T02:21:53.668Z,10.6
2022-09-12T02:22:57.111Z,10.6
2022-09-12T02:24:00.266Z,10.7
2022-09-12T02:25:03.609Z,10.7
2022-09-12T02:26:06.753Z,10.7
2022-09-12T02:27:10.135Z,10.8
2022-09-12T02:28:13.845Z,10.7
2022-09-12T02:29:17.418Z,10.6
2022-09-12T02:30:20.407Z,10.6
2022-09-12T02:31:23.552Z,10.6
2022-09-12T02:32:27.273Z,10.6
2022-09-12T02:33:30.067Z,10.5
2022-09-12T02:34:32.867Z,10.5
2022-09-12T02:35:35.729Z,10.5
2022-09-12T02:36:38.151Z,10.5
2022-09-12T02:37:41.255Z,10.5
2022-09-12T02:38:44.891Z,10.5
2022-09-12T02:39:47.990Z,10.5
2022-09-12T02:40:51.220Z,10.5
2022-09-12T02:41:54.396Z,10.5
2022-09-12T02:42:57.584Z,10.5
2022-09-12T02:44:00.020Z,10.5
2022-09-12T02:45:03.613Z,10.5
2022-09-12T02:46:07.046Z,10.6
2022-09-12T02:47:10.044Z,10.6
2022-09-12T02:48:14.814Z,10.6
2022-09-12T02:49:17.389Z,10.5
2022-09-12T02:50:20.513Z,10.5
2022-09-12T02:51:25.205Z,10.5
2022-09-12T02:52:27.865Z,10.5
2022-09-12T02:53:30.876Z,10.5
2022-09-12T02:54:33.666Z,10.5
2022-09-12T02:55:36.886Z,10.5
2022-09-12T02:56:39.669Z,10.5
2022-09-12T02:57:42.351Z,10.4
2022-09-12T02:58:45.776Z,10.4
2022-09-12T02:59:49.074Z,10.4
2022-09-12T03:00:53.487Z,10.4
2022-09-12T03:01:57.366Z,10.4
2022-09-12T03:03:01.017Z,10.4
2022-09-12T03:04:03.444Z,10.4
2022-09-12T03:05:07.137Z,10.4
2022-09-12T03:06:10.010Z,10.4
2022-09-12T03:07:12.325Z,10.4
2022-09-12T03:08:15.467Z,10.3
2022-09-12T03:09:18.257Z,10.3
2022-09-12T03:10:21.613Z,10.3
2022-09-12T03:11:24.756Z,10.3
2022-09-12T03:12:28.005Z,10.3
2022-09-12T03:13:30.872Z,10.3
2022-09-12T03:14:34.113Z,10.2
2022-09-12T03:15:37.181Z,10.2
2022-09-12T03:16:41.666Z,10.2
2022-09-12T03:17:44.784Z,10.3
2022-09-12T03:18:48.102Z,10.2
2022-09-12T03:19:51.560Z,10.2
2022-09-12T03:20:53.868Z,10.2
2022-09-12T03:21:57.282Z,10.2
2022-09-12T03:23:00.495Z,10.2
2022-09-12T03:24:03.559Z,10.1
2022-09-12T03:25:06.081Z,10.2
2022-09-12T03:26:08.790Z,10.2
2022-09-12T03:27:11.853Z,10.3
2022-09-12T03:28:15.065Z,10.3
2022-09-12T03:29:17.316Z,10.3
2022-09-12T03:30:21.078Z,10.2
2022-09-12T03:31:23.862Z,10.2
2022-09-12T03:32:27.637Z,10.2
2022-09-12T03:33:30.906Z,10.2
2022-09-12T03:34:33.804Z,10.2
2022-09-12T03:35:36.604Z,10.1
2022-09-12T03:36:39.117Z,10.1
2022-09-12T03:37:41.918Z,10.1
2022-09-12T03:38:44.787Z,10.2
2022-09-12T03:39:47.939Z,10.1
2022-09-12T03:40:56.313Z,10.2
2022-09-12T03:41:59.469Z,10.1
2022-09-12T03:43:02.628Z,10.1
2022-09-12T03:44:05.511Z,10.2
2022-09-12T03:45:08.788Z,10.1
2022-09-12T03:46:11.954Z,10.2
2022-09-12T03:47:15.020Z,10.1
2022-09-12T03:48:18.586Z,10.2
2022-09-12T03:49:21.663Z,10.2
2022-09-12T03:50:24.480Z,10.2
2022-09-12T03:51:27.746Z,10.2
2022-09-12T03:52:30.913Z,10.1
2022-09-12T03:53:34.161Z,10.1
2022-09-12T03:54:37.861Z,10.1
2022-09-12T03:55:41.203Z,10.1
2022-09-12T03:56:44.269Z,10.1
2022-09-12T03:57:47.334Z,10.1
2022-09-12T03:58:51.675Z,10.1
2022-09-12T03:59:54.833Z,10.1
2022-09-12T04:00:57.595Z,10.1
2022-09-12T04:02:01.757Z,10.1
2022-09-12T04:03:04.289Z,10
2022-09-12T04:04:07.886Z,10
2022-09-12T04:05:11.176Z,10
2022-09-12T04:06:14.078Z,10
2022-09-12T04:07:17.254Z,10.1
2022-09-12T04:08:19.925Z,10.1
2022-09-12T04:09:23.084Z,10.1
2022-09-12T04:10:25.874Z,10.1
2022-09-12T04:11:29.367Z,10
2022-09-12T04:12:32.078Z,9.9
2022-09-12T04:13:34.948Z,9.9
2022-09-12T04:14:38.097Z,9.9
2022-09-12T04:15:41.237Z,9.9
2022-09-12T04:16:44.696Z,9.9
2022-09-12T04:17:47.586Z,10
2022-09-12T04:18:51.040Z,10
2022-09-12T04:19:54.300Z,9.9
2022-09-12T04:20:58.024Z,9.9
2022-09-12T04:22:01.106Z,9.9
2022-09-12T04:23:03.417Z,9.8
2022-09-12T04:24:06.681Z,9.8
2022-09-12T04:25:09.473Z,9.8
2022-09-12T04:26:12.666Z,9.8
2022-09-12T04:27:15.445Z,9.8
2022-09-12T04:28:18.485Z,9.8
2022-09-12T04:29:21.459Z,9.7
2022-09-12T04:30:25.037Z,9.8
2022-09-12T04:31:27.638Z,9.7
2022-09-12T04:32:29.704Z,9.8
2022-09-12T04:33:32.694Z,9.7
2022-09-12T04:34:35.481Z,9.7
2022-09-12T04:35:38.985Z,9.8
2022-09-12T04:36:42.701Z,9.7
2022-09-12T04:37:46.513Z,9.8
2022-09-12T04:38:50.014Z,9.8
2022-09-12T04:39:53.277Z,9.8
2022-09-12T04:40:56.091Z,9.7
2022-09-12T04:41:59.258Z,9.7
2022-09-12T04:43:02.407Z,9.7
2022-09-12T04:44:05.471Z,9.7
2022-09-12T04:45:08.087Z,9.7
2022-09-12T04:46:11.200Z,9.7
2022-09-12T04:47:14.172Z,9.8
2022-09-12T04:48:17.259Z,9.8
2022-09-12T04:49:20.385Z,9.7
2022-09-12T04:50:23.715Z,9.8
2022-09-12T04:51:27.477Z,9.8
2022-09-12T04:52:30.431Z,9.9
2022-09-12T04:53:33.211Z,9.8
2022-09-12T04:54:36.094Z,9.8
2022-09-12T04:55:38.878Z,9.8
2022-09-12T04:56:42.021Z,9.7
2022-09-12T04:57:45.160Z,9.8
2022-09-12T04:58:48.359Z,9.8
2022-09-12T04:59:51.205Z,9.7
2022-09-12T05:00:55.361Z,9.8
2022-09-12T05:01:59.439Z,9.9
2022-09-12T05:03:03.211Z,9.8
2022-09-12T05:04:06.284Z,9.8
2022-09-12T05:05:10.046Z,9.8
2022-09-12T05:06:13.273Z,9.9
2022-09-12T05:07:17.058Z,9.9
2022-09-12T05:08:20.444Z,9.9
2022-09-12T05:09:23.957Z,10
2022-09-12T05:10:27.575Z,9.9
2022-09-12T05:12:10.096Z,9.9
2022-09-12T05:13:13.091Z,9.9
2022-09-12T05:14:16.245Z,9.9
2022-09-12T05:15:19.675Z,9.9
2022-09-12T05:16:22.797Z,9.9
2022-09-12T05:17:26.332Z,9.9
2022-09-12T05:18:29.779Z,9.9
2022-09-12T05:19:32.911Z,9.9
2022-09-12T05:20:36.221Z,9.9
2022-09-12T05:21:39.085Z,9.9
2022-09-12T05:22:42.896Z,9.9
2022-09-12T05:23:45.779Z,10
2022-09-12T05:24:52.150Z,10
2022-09-12T05:25:55.042Z,9.9
2022-09-12T05:26:57.885Z,10
2022-09-12T05:28:00.940Z,10
2022-09-12T05:29:03.797Z,10
2022-09-12T05:30:06.982Z,10
2022-09-12T05:31:10.492Z,10
2022-09-12T05:32:13.294Z,10.1
2022-09-12T05:33:16.160Z,10.1
2022-09-12T05:34:18.951Z,10.1
2022-09-12T05:35:22.390Z,10.1
2022-09-12T05:36:25.926Z,10.1
2022-09-12T05:37:29.931Z,10.1
2022-09-12T05:38:33.783Z,10.1
2022-09-12T05:39:37.081Z,10.2
2022-09-12T05:40:40.696Z,10.2
2022-09-12T05:41:43.701Z,10.2
2022-09-12T05:42:46.445Z,10.2
2022-09-12T05:43:49.156Z,10.2
2022-09-12T05:44:52.820Z,10.3
2022-09-12T05:45:55.719Z,10.4
2022-09-12T05:46:59.154Z,10.4
2022-09-12T05:48:01.944Z,10.5
2022-09-12T05:49:04.735Z,10.5
2022-09-12T05:50:07.807Z,10.5
2022-09-12T05:51:10.329Z,10.5
2022-09-12T05:52:13.792Z,10.5
2022-09-12T05:53:16.752Z,10.5
2022-09-12T05:54:20.601Z,10.6
2022-09-12T05:55:23.837Z,10.6
2022-09-12T05:56:27.312Z,10.7
2022-09-12T05:57:30.101Z,10.7
2022-09-12T05:58:33.945Z,10.7
2022-09-12T05:59:37.011Z,10.8
2022-09-12T06:00:39.599Z,10.8
2022-09-12T06:01:42.808Z,10.9
2022-09-12T06:02:46.392Z,10.9
2022-09-12T06:03:49.174Z,10.9
2022-09-12T06:04:51.887Z,11
2022-09-12T06:05:54.951Z,11.1
2022-09-12T06:06:57.756Z,11.1
2022-09-12T06:08:01.310Z,11.1
2022-09-12T06:09:04.465Z,11.2
2022-09-12T06:10:08.243Z,11.3
2022-09-12T06:11:11.430Z,11.4
2022-09-12T06:12:14.784Z,11.4
2022-09-12T06:13:18.046Z,11.5
2022-09-12T06:14:21.782Z,11.6
2022-09-12T06:15:25.197Z,11.6
2022-09-12T06:16:28.493Z,11.6
2022-09-12T06:17:32.281Z,11.5
2022-09-12T06:18:35.233Z,11.4
2022-09-12T06:19:38.609Z,11.4
2022-09-12T06:20:40.842Z,11.5
2022-09-12T06:21:43.335Z,11.6
2022-09-12T06:22:46.193Z,11.8
2022-09-12T06:23:49.370Z,11.9
2022-09-12T06:24:59.490Z,12
2022-09-12T06:26:02.713Z,12
2022-09-12T06:27:05.516Z,11.8
2022-09-12T06:28:08.478Z,11.8
2022-09-12T06:29:11.556Z,11.8
2022-09-12T06:30:14.555Z,11.9
2022-09-12T06:31:18.360Z,12
2022-09-12T06:32:21.506Z,12.1
2022-09-12T06:33:24.299Z,12.1
2022-09-12T06:34:27.669Z,12.2
2022-09-12T06:35:30.072Z,12.3
2022-09-12T06:36:33.073Z,12.3
2022-09-12T06:37:36.807Z,12.3
2022-09-12T06:38:40.253Z,12.3
2022-09-12T06:39:43.300Z,12.3
2022-09-12T06:40:45.923Z,12.3
2022-09-12T06:41:49.695Z,12.4
2022-09-12T06:42:53.230Z,12.4
2022-09-12T06:43:56.422Z,12.4
2022-09-12T06:44:59.563Z,12.5
2022-09-12T06:46:03.384Z,12.6
2022-09-12T06:47:06.615Z,12.7
2022-09-12T06:48:09.761Z,12.8
2022-09-12T06:49:12.002Z,12.9
2022-09-12T06:50:14.974Z,13
2022-09-12T06:51:18.542Z,13.1
2022-09-12T06:52:22.157Z,13.1
2022-09-12T06:53:24.195Z,13.2
2022-09-12T06:54:26.990Z,13
2022-09-12T06:55:29.884Z,13.2
2022-09-12T06:56:32.672Z,13.4
2022-09-12T06:57:35.980Z,13.5
2022-09-12T06:58:39.436Z,13.6
2022-09-12T06:59:42.501Z,13.6
2022-09-12T07:00:45.754Z,13.7
2022-09-12T07:01:48.777Z,13.7
2022-09-12T07:02:52.331Z,13.8
2022-09-12T07:03:55.688Z,13.7
2022-09-12T07:04:58.853Z,13.7
2022-09-12T07:06:01.660Z,13.8
2022-09-12T07:07:04.455Z,13.6
2022-09-12T07:08:07.679Z,13.8
2022-09-12T07:09:10.852Z,13.9
2022-09-12T07:10:14.001Z,14
2022-09-12T07:11:19.183Z,14.1
2022-09-12T07:12:22.900Z,14.1
2022-09-12T07:13:26.762Z,14.1
2022-09-12T07:14:30.047Z,14.2
2022-09-12T07:15:33.204Z,14.3
2022-09-12T07:16:36.874Z,14.2
2022-09-12T07:17:40.726Z,14.3
2022-09-12T07:18:43.875Z,14.4
2022-09-12T07:19:46.707Z,14.4
2022-09-12T07:20:50.214Z,14.4
2022-09-12T07:22:00.326Z,14.4
2022-09-12T07:23:02.939Z,14.6
2022-09-12T07:24:05.727Z,14.6
2022-09-12T07:25:09.068Z,14.8
2022-09-12T07:26:11.957Z,14.7
2022-09-12T07:27:15.373Z,14.6
2022-09-12T07:28:18.255Z,14.7
2022-09-12T07:29:39.705Z,14.6
2022-09-12T07:30:43.344Z,14.6
2022-09-12T07:31:45.876Z,14.7
2022-09-12T07:32:49.213Z,14.8
2022-09-12T07:33:56.708Z,14.9
2022-09-12T07:34:59.508Z,14.9
2022-09-12T07:36:02.606Z,15
2022-09-12T07:37:05.451Z,15.1
2022-09-12T07:38:08.528Z,15.1
2022-09-12T07:39:11.615Z,15.1
2022-09-12T07:40:14.995Z,15.1
2022-09-12T07:41:17.937Z,15.1
2022-09-12T07:42:21.318Z,15.1
2022-09-12T07:43:24.777Z,15.2
2022-09-12T07:44:28.799Z,15.2
2022-09-12T07:45:32.281Z,15.3
2022-09-12T07:46:35.186Z,15.2
2022-09-12T07:47:38.309Z,15.3
2022-09-12T07:48:41.283Z,15.3
2022-09-12T07:49:44.074Z,15.4
2022-09-12T07:50:47.304Z,15.5
2022-09-12T07:51:50.450Z,15.5
2022-09-12T07:52:53.235Z,15.6
2022-09-12T07:53:56.306Z,15.6
2022-09-12T07:54:59.607Z,15.7
2022-09-12T07:56:03.334Z,15.7
2022-09-12T07:57:06.258Z,15.7
2022-09-12T07:58:09.687Z,15.7
2022-09-12T07:59:13.037Z,15.8
2022-09-12T08:00:16.769Z,15.8
2022-09-12T08:01:20.576Z,15.9
2022-09-12T08:02:24.166Z,15.9
2022-09-12T08:03:27.419Z,15.8
2022-09-12T08:04:31.150Z,15.9
2022-09-12T08:05:34.318Z,16
2022-09-12T08:06:37.845Z,16
2022-09-12T08:07:41.026Z,16.1
2022-09-12T08:08:44.471Z,16.1
2022-09-12T08:09:47.549Z,16.1
2022-09-12T08:10:50.498Z,16
2022-09-12T08:11:53.311Z,16.1
2022-09-12T08:12:56.170Z,16.2
2022-09-12T08:13:59.932Z,16.3
2022-09-12T08:15:02.534Z,16.3
2022-09-12T08:16:06.825Z,16.2
2022-09-12T08:17:10.677Z,16.3
2022-09-12T08:18:13.923Z,16.2
2022-09-12T08:19:17.380Z,16.2
2022-09-12T08:20:28.223Z,16.2
2022-09-12T08:21:31.348Z,16.4
2022-09-12T08:22:34.565Z,16.5
2022-09-12T08:23:38.271Z,16.6
2022-09-12T08:24:41.183Z,16.6
2022-09-12T08:25:44.520Z,16.8
2022-09-12T08:26:47.392Z,16.9
2022-09-12T08:27:50.189Z,16.9
2022-09-12T08:28:53.065Z,17
2022-09-12T08:29:56.719Z,17.1
2022-09-12T08:31:00.859Z,17.1
2022-09-12T08:32:04.985Z,17.1
2022-09-12T08:33:08.832Z,17.2
2022-09-12T08:34:12.478Z,17.1
2022-09-12T08:35:14.982Z,17.1
2022-09-12T08:36:18.407Z,17.1
2022-09-12T08:37:21.852Z,17.1
2022-09-12T08:38:25.049Z,17.1
2022-09-12T08:39:28.125Z,17.2
2022-09-12T08:40:31.116Z,17.3
2022-09-12T08:41:34.029Z,17.4
2022-09-12T08:42:36.628Z,17.5
2022-09-12T08:43:39.225Z,17.4
2022-09-12T08:44:42.582Z,17.4
2022-09-12T08:45:45.983Z,17.4
2022-09-12T08:46:49.130Z,17.5
2022-09-12T08:47:53.224Z,17.5
2022-09-12T08:48:56.604Z,17.6
2022-09-12T08:50:00.382Z,17.6
2022-09-12T08:51:03.902Z,17.8
2022-09-12T08:52:06.503Z,18.1
2022-09-12T08:53:09.468Z,18.1
2022-09-12T08:54:12.286Z,18.3
2022-09-12T08:55:15.938Z,18.4
2022-09-12T08:56:19.671Z,18.5
2022-09-12T08:57:22.743Z,18.6
2022-09-12T08:58:26.259Z,18.7
2022-09-12T08:59:29.988Z,18.7
2022-09-12T09:00:32.945Z,18.6
2022-09-12T09:01:36.846Z,18.5
2022-09-12T09:02:41.158Z,18.6
2022-09-12T09:03:44.102Z,18.5
2022-09-12T09:04:47.913Z,18.5
2022-09-12T09:05:51.436Z,18.3
2022-09-12T09:06:54.586Z,18.5
2022-09-12T09:07:58.043Z,18.4
2022-09-12T09:09:00.489Z,18.5
2022-09-12T09:10:03.861Z,18.8
2022-09-12T09:11:06.824Z,18.9
2022-09-12T09:12:09.621Z,19
2022-09-12T09:13:12.711Z,19.3
2022-09-12T09:14:15.576Z,19.3
2022-09-12T09:15:17.912Z,19.3
2022-09-12T09:16:21.721Z,19.2
2022-09-12T09:17:24.843Z,19.3
2022-09-12T09:18:27.955Z,19.5
2022-09-12T09:19:31.704Z,19.4
2022-09-12T09:20:34.748Z,19.4
2022-09-12T09:21:37.932Z,19.5
2022-09-12T09:22:41.283Z,19.7
2022-09-12T09:23:44.777Z,19.7
2022-09-12T09:24:48.489Z,19.8
2022-09-12T09:25:51.568Z,20
2022-09-12T09:26:55.197Z,19.9
2022-09-12T09:27:58.057Z,20.1
2022-09-12T09:29:02.060Z,20.2
2022-09-12T09:30:04.964Z,20.2
2022-09-12T09:31:08.638Z,20.2
2022-09-12T09:32:11.833Z,20.5
2022-09-12T09:33:14.797Z,20.7
2022-09-12T09:34:18.139Z,21
2022-09-12T09:35:21.650Z,21.2
2022-09-12T09:36:24.641Z,21.1
2022-09-12T09:37:27.555Z,20.8
2022-09-12T09:38:30.982Z,21.1
2022-09-12T09:39:33.847Z,20.8
2022-09-12T09:40:37.291Z,21
2022-09-12T09:41:40.756Z,21.3
2022-09-12T09:42:44.406Z,21.5
2022-09-12T09:43:47.573Z,21.1
2022-09-12T09:44:50.842Z,21.3
2022-09-12T09:45:54.628Z,21.5
2022-09-12T09:46:57.007Z,21.7
2022-09-12T09:48:00.695Z,21.6
2022-09-12T09:49:04.133Z,21.4
2022-09-12T09:50:06.833Z,21.5
2022-09-12T09:51:10.570Z,21.6
2022-09-12T09:52:13.061Z,21.2
2022-09-12T09:53:16.451Z,21.2
2022-09-12T09:54:20.258Z,21.4
2022-09-12T09:55:23.330Z,21.7
2022-09-12T09:56:27.341Z,21.9
2022-09-12T09:57:30.771Z,22.2
2022-09-12T09:58:33.571Z,22.4
2022-09-12T09:59:37.059Z,21.8
2022-09-12T10:00:40.398Z,21.8
2022-09-12T10:01:43.575Z,22.2
2022-09-12T10:02:46.563Z,22.5
2022-09-12T10:03:49.807Z,22.8
2022-09-12T10:04:53.011Z,23.1
2022-09-12T10:05:56.058Z,22.4
2022-09-12T10:06:59.528Z,22.7
2022-09-12T10:08:02.908Z,21.8
2022-09-12T10:09:06.931Z,21
2022-09-12T10:10:10.358Z,21.1
2022-09-12T10:11:13.806Z,21.3
2022-09-12T10:12:17.228Z,21.7
2022-09-12T10:13:20.658Z,22.1
2022-09-12T10:14:23.651Z,21.6
2022-09-12T10:15:26.602Z,21.7
2022-09-12T10:16:29.690Z,21.9
2022-09-12T10:17:35.703Z,22.2
2022-09-12T10:18:38.090Z,21.5
2022-09-12T10:19:40.610Z,21.5
2022-09-12T10:20:43.714Z,21.9
2022-09-12T10:21:47.448Z,21.9
2022-09-12T10:22:50.641Z,21.6
2022-09-12T10:23:54.316Z,21.8
2022-09-12T10:24:57.528Z,22.2
2022-09-12T10:26:00.607Z,22.3
2022-09-12T10:27:03.608Z,22.5
2022-09-12T10:28:06.136Z,22.3
2022-09-12T10:29:09.013Z,22.6
2022-09-12T10:30:11.906Z,22.8
2022-09-12T10:31:15.627Z,22
2022-09-12T10:32:19.080Z,21.9
2022-09-12T10:33:22.529Z,22.7
2022-09-12T10:34:26.249Z,22.6
2022-09-12T10:35:29.083Z,23.1
2022-09-12T10:36:32.617Z,23.7
2022-09-12T10:37:35.622Z,24
2022-09-12T10:38:39.353Z,24.1
2022-09-12T10:39:42.472Z,24.1
2022-09-12T10:40:46.020Z,24.1
2022-09-12T10:41:49.169Z,24.4
2022-09-12T10:42:52.254Z,24.8
2022-09-12T10:43:54.771Z,24.9
2022-09-12T10:44:58.564Z,25.1
2022-09-12T10:46:02.303Z,25.1
2022-09-12T10:47:05.388Z,24.4
2022-09-12T10:48:09.480Z,23.5
2022-09-12T10:49:12.592Z,23.7
2022-09-12T10:50:24.694Z,24
2022-09-12T10:51:27.785Z,24.2
2022-09-12T10:52:31.638Z,23.1
2022-09-12T10:53:37.402Z,23.3
2022-09-12T10:54:40.603Z,23.6
2022-09-12T10:55:44.047Z,23.5
2022-09-12T10:56:47.131Z,23.6
2022-09-12T10:57:49.989Z,23.2
2022-09-12T10:58:53.153Z,23.7
2022-09-12T10:59:56.226Z,23.8
2022-09-12T11:01:00.110Z,23.3
2022-09-12T11:02:18.361Z,23.4
2022-09-12T11:03:21.586Z,23.8
2022-09-12T11:04:25.311Z,23.4
2022-09-12T11:05:28.409Z,23.2
2022-09-12T11:06:31.652Z,23.6
2022-09-12T11:07:35.117Z,23.6
2022-09-12T11:08:38.186Z,23.4
2022-09-12T11:09:41.543Z,23.4
2022-09-12T11:10:45.918Z,23.7
2022-09-12T11:11:48.799Z,23.8
2022-09-12T11:12:52.538Z,24.1
2022-09-12T11:13:55.541Z,23.8
2022-09-12T11:14:58.520Z,24
2022-09-12T11:16:01.597Z,24.4
2022-09-12T11:17:04.787Z,23.9
2022-09-12T11:18:07.378Z,23.9
2022-09-12T11:19:10.362Z,24.5
2022-09-12T11:20:13.915Z,24.6
2022-09-12T11:21:17.263Z,24.1
2022-09-12T11:22:20.771Z,24
2022-09-12T11:23:24.239Z,23.6
2022-09-12T11:24:27.037Z,23.4
2022-09-12T11:25:30.463Z,23.5
2022-09-12T11:26:34.236Z,23.9
2022-09-12T11:27:37.638Z,24.2
2022-09-12T11:28:48.047Z,23.8
2022-09-12T11:29:50.923Z,23.8
2022-09-12T11:30:54.133Z,24
2022-09-12T11:31:57.322Z,23.6
2022-09-12T11:33:00.421Z,23.8
2022-09-12T11:34:03.590Z,23.5
2022-09-12T11:35:06.408Z,23.6
2022-09-12T11:36:09.502Z,23.8
2022-09-12T11:37:19.293Z,24
2022-09-12T11:38:22.945Z,23.8
2022-09-12T11:39:26.314Z,23.2
2022-09-12T11:40:30.125Z,23.6
2022-09-12T11:41:32.802Z,23.5
2022-09-12T11:42:36.029Z,23.2
2022-09-12T11:43:40.064Z,23.1
2022-09-12T11:44:42.403Z,23.3
2022-09-12T11:45:45.712Z,23.6
2022-09-12T11:46:53.843Z,23.8
2022-09-12T11:47:56.716Z,24
2022-09-12T11:48:59.624Z,24.3
2022-09-12T11:50:01.792Z,24.1
2022-09-12T11:51:04.931Z,23.8
2022-09-12T11:52:08.661Z,24.1
2022-09-12T11:53:12.182Z,24.4
2022-09-12T11:54:15.539Z,24.2
2022-09-12T11:55:18.930Z,23.9
2022-09-12T11:56:22.278Z,23.7
2022-09-12T11:57:25.629Z,23.6
2022-09-12T11:58:29.394Z,23.4
2022-09-12T11:59:33.108Z,23.4
2022-09-12T12:00:36.255Z,23.5
2022-09-12T12:01:49.914Z,23.7
2022-09-12T12:02:53.031Z,23.9
2022-09-12T12:03:56.446Z,23.4
2022-09-12T12:04:59.068Z,23.8
2022-09-12T12:06:01.964Z,24.2
2022-09-12T12:07:04.848Z,23.9
2022-09-12T12:08:08.181Z,24
2022-09-12T12:09:11.596Z,24.4
2022-09-12T12:10:14.550Z,24.4
2022-09-12T12:11:17.480Z,24.3
2022-09-12T12:12:21.409Z,24.4
2022-09-12T12:13:24.640Z,24.1
2022-09-12T12:14:27.858Z,24
2022-09-12T12:15:32.007Z,23.8
2022-09-12T12:16:35.288Z,24
2022-09-12T12:17:38.709Z,23.7
2022-09-12T12:18:41.514Z,24.1
2022-09-12T12:19:45.424Z,24.1
2022-09-12T12:20:48.853Z,24.2
2022-09-12T12:21:51.361Z,24.8
2022-09-12T12:22:54.810Z,24.9
2022-09-12T12:23:57.974Z,24.6
2022-09-12T12:25:00.583Z,24.1
2022-09-12T12:26:03.858Z,24.2
2022-09-12T12:27:07.325Z,24.9
2022-09-12T12:28:10.764Z,25.3
2022-09-12T12:29:14.189Z,25.1
2022-09-12T12:30:17.964Z,25.1
2022-09-12T12:31:21.592Z,25
2022-09-12T12:32:24.897Z,24.7
2022-09-12T12:33:27.782Z,24
2022-09-12T12:34:30.864Z,23.7
2022-09-12T12:35:34.322Z,24.5
2022-09-12T12:36:37.474Z,24.7
2022-09-12T12:37:40.929Z,24.3
2022-09-12T12:38:44.002Z,23.9
2022-09-12T12:39:47.539Z,23.6
2022-09-12T12:40:51.149Z,23
2022-09-12T12:41:53.371Z,23.6
2022-09-12T12:42:57.117Z,23.8
2022-09-12T12:44:00.107Z,24.2
2022-09-12T12:45:03.238Z,24.4
2022-09-12T12:46:07.104Z,24.3
2022-09-12T12:47:10.364Z,23.4
2022-09-12T12:48:13.892Z,23.2
2022-09-12T12:49:16.692Z,23.4
2022-09-12T12:50:19.485Z,23.4
2022-09-12T12:51:22.825Z,23.4
2022-09-12T12:52:25.714Z,23.2
2022-09-12T12:53:28.959Z,23.1
2022-09-12T12:54:31.191Z,22.9
2022-09-12T12:55:34.672Z,22.9
2022-09-12T12:56:36.939Z,22.9
2022-09-12T12:57:40.375Z,22.9
2022-09-12T12:58:43.215Z,22.8
2022-09-12T12:59:46.678Z,22.8
2022-09-12T13:00:49.405Z,23
2022-09-12T13:01:57.103Z,23
2022-09-12T13:03:00.415Z,23.3
2022-09-12T13:04:03.860Z,23.6
2022-09-12T13:05:06.654Z,23.8
2022-09-12T13:06:09.961Z,23.8
2022-09-12T13:07:12.763Z,23.5
2022-09-12T13:08:15.285Z,23.4
2022-09-12T13:09:18.383Z,23.2
2022-09-12T13:10:21.377Z,23
2022-09-12T13:11:24.091Z,23.2
2022-09-12T13:12:27.238Z,23
2022-09-12T13:13:30.312Z,23.3
2022-09-12T13:14:33.818Z,22.9
2022-09-12T13:15:38.093Z,22.9
2022-09-12T13:16:40.945Z,23.2
2022-09-12T13:17:44.714Z,23
2022-09-12T13:18:49.074Z,23
2022-09-12T13:20:30.762Z,22.8
2022-09-12T13:21:34.243Z,22.8
2022-09-12T13:22:37.785Z,22.7
2022-09-12T13:23:40.399Z,23.1
2022-09-12T13:24:42.704Z,23.4
2022-09-12T13:25:45.485Z,22.6
2022-09-12T13:26:49.210Z,22.7
2022-09-12T13:27:52.398Z,22.8
2022-09-12T13:28:56.128Z,23.1
2022-09-12T13:30:00.297Z,22.6
2022-09-12T13:31:03.507Z,22.5
2022-09-12T13:32:06.387Z,22.5
2022-09-12T13:33:09.345Z,22.3
2022-09-12T13:34:12.762Z,22
2022-09-12T13:35:15.961Z,22
2022-09-12T13:36:18.772Z,22.3
2022-09-12T13:37:22.042Z,22.3
2022-09-12T13:38:24.768Z,22.2
2022-09-12T13:39:27.864Z,21.9
2022-09-12T13:40:31.308Z,21.8
2022-09-12T13:41:34.107Z,21.7
2022-09-12T13:42:38.115Z,21.8
2022-09-12T13:43:41.622Z,21.9
2022-09-12T13:44:44.633Z,21.8
2022-09-12T13:45:47.576Z,22
2022-09-12T13:46:50.883Z,22.4
2022-09-12T13:47:59.877Z,22.7
2022-09-12T13:49:03.938Z,22.2
2022-09-12T13:50:07.415Z,22.2
2022-09-12T13:51:11.151Z,22.2
2022-09-12T13:52:15.144Z,22.1
2022-09-12T13:53:18.514Z,22
2022-09-12T13:54:26.145Z,21.7
2022-09-12T13:55:29.218Z,21.6
2022-09-12T13:56:32.678Z,21.6
2022-09-12T13:57:35.820Z,21.8
2022-09-12T13:58:38.991Z,21.7
2022-09-12T13:59:42.458Z,21.6
2022-09-12T14:00:45.651Z,21.6
2022-09-12T14:01:48.528Z,21.7
2022-09-12T14:02:52.199Z,21.5
2022-09-12T14:04:00.599Z,21.5
2022-09-12T14:05:04.636Z,21.6
2022-09-12T14:06:08.400Z,21.7
2022-09-12T14:07:11.669Z,21.8
2022-09-12T14:08:14.459Z,22
2022-09-12T14:09:24.927Z,22
2022-09-12T14:10:27.952Z,22.1
2022-09-12T14:11:30.789Z,22
2022-09-12T14:12:33.962Z,21.8